sensor_id;sensor_type;location;lat;lon;timestamp;P1;durP1;ratioP1;P2;durP2;ratioP2
29700;SDS011;57917;51.380;-0.176;2023-06-22T00:05:35;7.05;;;2.63;;
29700;SDS011;57917;51.380;-0.176;2023-06-22T00:11:22;7.82;;;2.95;;
29700;SDS011;57917;51.380;-0.176;2023-06-22T00:17:09;8.85;;;2.50;;
29700;SDS011;57917;51.380;-0.176;2023-06-22T00:22:59;4.95;;;2.92;;
29700;SDS011;57917;51.380;-0.176;2023-06-22T00:28:46;3.92;;;2.42;;
29700;SDS011;57917;51.380;-0.176;2023-06-22T00:34:35;6.82;;;2.78;;
29700;SDS011;57917;51.380;-0.176;2023-06-22T00:40:23;10.35;;;3.20;;
29700;SDS011;57917;51.380;-0.176;2023-06-22T00:46:10;7.25;;;2.72;;
29700;SDS011;57917;51.380;-0.176;2023-06-22T00:51:58;4.07;;;2.50;;
29700;SDS011;57917;51.380;-0.176;2023-06-22T00:57:48;9.73;;;2.92;;
29700;SDS011;57917;51.380;-0.176;2023-06-22T01:09:27;5.93;;;2.47;;
29700;SDS011;57917;51.380;-0.176;2023-06-22T01:15:22;7.25;;;2.78;;
29700;SDS011;57917;51.380;-0.176;2023-06-22T01:21:15;6.05;;;3.05;;
29700;SDS011;57917;51.380;-0.176;2023-06-22T01:33:10;6.38;;;3.05;;
29700;SDS011;57917;51.380;-0.176;2023-06-22T01:38:59;9.23;;;2.78;;
29700;SDS011;57917;51.380;-0.176;2023-06-22T01:44:49;8.70;;;3.45;;
29700;SDS011;57917;51.380;-0.176;2023-06-22T01:50:36;5.40;;;2.70;;
29700;SDS011;57917;51.380;-0.176;2023-06-22T01:56:23;5.13;;;3.40;;
29700;SDS011;57917;51.380;-0.176;2023-06-22T02:02:11;4.03;;;2.65;;
29700;SDS011;57917;51.380;-0.176;2023-06-22T02:08:11;10.13;;;2.92;;
29700;SDS011;57917;51.380;-0.176;2023-06-22T02:14:05;7.40;;;3.25;;
29700;SDS011;57917;51.380;-0.176;2023-06-22T02:19:53;6.20;;;3.13;;
29700;SDS011;57917;51.380;-0.176;2023-06-22T02:25:40;6.57;;;3.33;;
29700;SDS011;57917;51.380;-0.176;2023-06-22T02:31:33;7.22;;;2.90;;
29700;SDS011;57917;51.380;-0.176;2023-06-22T02:37:20;6.13;;;3.55;;
29700;SDS011;57917;51.380;-0.176;2023-06-22T02:43:10;6.40;;;3.28;;
29700;SDS011;57917;51.380;-0.176;2023-06-22T02:48:57;8.63;;;3.03;;
29700;SDS011;57917;51.380;-0.176;2023-06-22T02:54:44;6.60;;;3.35;;
29700;SDS011;57917;51.380;-0.176;2023-06-22T03:00:36;15.85;;;3.85;;
29700;SDS011;57917;51.380;-0.176;2023-06-22T03:06:28;7.50;;;3.97;;
29700;SDS011;57917;51.380;-0.176;2023-06-22T03:12:15;8.52;;;3.40;;
29700;SDS011;57917;51.380;-0.176;2023-06-22T03:18:08;8.73;;;3.65;;
29700;SDS011;57917;51.380;-0.176;2023-06-22T03:23:55;6.18;;;3.35;;
29700;SDS011;57917;51.380;-0.176;2023-06-22T03:29:42;9.70;;;3.63;;
29700;SDS011;57917;51.380;-0.176;2023-06-22T03:35:30;7.70;;;3.65;;
29700;SDS011;57917;51.380;-0.176;2023-06-22T03:41:17;7.10;;;3.63;;
29700;SDS011;57917;51.380;-0.176;2023-06-22T03:47:08;5.78;;;3.50;;
29700;SDS011;57917;51.380;-0.176;2023-06-22T03:52:58;14.73;;;4.03;;
29700;SDS011;57917;51.380;-0.176;2023-06-22T03:58:46;12.00;;;3.63;;
29700;SDS011;57917;51.380;-0.176;2023-06-22T04:04:33;8.15;;;3.78;;
29700;SDS011;57917;51.380;-0.176;2023-06-22T04:10:22;6.85;;;3.58;;
29700;SDS011;57917;51.380;-0.176;2023-06-22T04:16:09;8.45;;;3.55;;
29700;SDS011;57917;51.380;-0.176;2023-06-22T04:21:57;12.93;;;3.83;;
29700;SDS011;57917;51.380;-0.176;2023-06-22T04:27:45;11.73;;;4.80;;
29700;SDS011;57917;51.380;-0.176;2023-06-22T04:33:32;7.00;;;4.15;;
29700;SDS011;57917;51.380;-0.176;2023-06-22T04:39:19;11.35;;;4.22;;
29700;SDS011;57917;51.380;-0.176;2023-06-22T04:45:08;7.65;;;3.80;;
29700;SDS011;57917;51.380;-0.176;2023-06-22T04:50:56;13.77;;;4.13;;
29700;SDS011;57917;51.380;-0.176;2023-06-22T05:02:43;10.98;;;4.07;;
29700;SDS011;57917;51.380;-0.176;2023-06-22T05:08:34;12.50;;;4.40;;
29700;SDS011;57917;51.380;-0.176;2023-06-22T05:14:21;7.97;;;4.57;;
29700;SDS011;57917;51.380;-0.176;2023-06-22T05:20:11;11.20;;;3.97;;
29700;SDS011;57917;51.380;-0.176;2023-06-22T05:26:00;10.57;;;3.70;;
29700;SDS011;57917;51.380;-0.176;2023-06-22T05:31:57;7.13;;;3.90;;
29700;SDS011;57917;51.380;-0.176;2023-06-22T05:37:49;11.87;;;3.83;;
29700;SDS011;57917;51.380;-0.176;2023-06-22T05:43:39;9.38;;;3.70;;
29700;SDS011;57917;51.380;-0.176;2023-06-22T05:49:35;11.05;;;3.88;;
29700;SDS011;57917;51.380;-0.176;2023-06-22T05:55:24;10.05;;;3.70;;
29700;SDS011;57917;51.380;-0.176;2023-06-22T06:01:12;9.73;;;4.10;;
29700;SDS011;57917;51.380;-0.176;2023-06-22T06:07:06;6.90;;;3.85;;
29700;SDS011;57917;51.380;-0.176;2023-06-22T06:12:57;6.50;;;3.50;;
29700;SDS011;57917;51.380;-0.176;2023-06-22T06:18:44;13.27;;;3.80;;
29700;SDS011;57917;51.380;-0.176;2023-06-22T06:24:31;6.93;;;3.95;;
29700;SDS011;57917;51.380;-0.176;2023-06-22T06:30:19;12.18;;;3.92;;
29700;SDS011;57917;51.380;-0.176;2023-06-22T06:36:14;5.43;;;3.80;;
29700;SDS011;57917;51.380;-0.176;2023-06-22T06:42:18;11.77;;;4.40;;
29700;SDS011;57917;51.380;-0.176;2023-06-22T06:48:17;9.23;;;4.00;;
29700;SDS011;57917;51.380;-0.176;2023-06-22T06:54:15;8.85;;;4.15;;
29700;SDS011;57917;51.380;-0.176;2023-06-22T07:00:09;10.83;;;4.63;;
29700;SDS011;57917;51.380;-0.176;2023-06-22T07:06:08;8.20;;;5.18;;
29700;SDS011;57917;51.380;-0.176;2023-06-22T07:12:08;8.10;;;4.55;;
29700;SDS011;57917;51.380;-0.176;2023-06-22T07:18:31;11.63;;;4.63;;
29700;SDS011;57917;51.380;-0.176;2023-06-22T07:24:18;17.80;;;6.03;;
29700;SDS011;57917;51.380;-0.176;2023-06-22T07:30:09;13.60;;;4.97;;
29700;SDS011;57917;51.380;-0.176;2023-06-22T07:35:57;13.57;;;4.93;;
29700;SDS011;57917;51.380;-0.176;2023-06-22T07:41:45;10.13;;;4.78;;
29700;SDS011;57917;51.380;-0.176;2023-06-22T07:47:32;15.07;;;4.90;;
29700;SDS011;57917;51.380;-0.176;2023-06-22T07:53:22;7.47;;;4.25;;
29700;SDS011;57917;51.380;-0.176;2023-06-22T07:59:26;5.28;;;3.30;;
29700;SDS011;57917;51.380;-0.176;2023-06-22T08:05:19;13.95;;;3.53;;
29700;SDS011;57917;51.380;-0.176;2023-06-22T08:11:09;7.18;;;3.20;;
29700;SDS011;57917;51.380;-0.176;2023-06-22T08:16:56;7.65;;;3.50;;
29700;SDS011;57917;51.380;-0.176;2023-06-22T08:22:43;13.45;;;3.63;;
29700;SDS011;57917;51.380;-0.176;2023-06-22T08:42:21;5.95;;;3.13;;
29700;SDS011;57917;51.380;-0.176;2023-06-22T08:48:12;7.05;;;3.13;;
29700;SDS011;57917;51.380;-0.176;2023-06-22T08:54:01;6.50;;;2.78;;
29700;SDS011;57917;51.380;-0.176;2023-06-22T08:59:49;8.38;;;2.80;;
29700;SDS011;57917;51.380;-0.176;2023-06-22T09:05:45;4.95;;;2.40;;
29700;SDS011;57917;51.380;-0.176;2023-06-22T09:11:34;4.95;;;2.70;;
29700;SDS011;57917;51.380;-0.176;2023-06-22T09:17:22;4.30;;;2.30;;
29700;SDS011;57917;51.380;-0.176;2023-06-22T09:23:09;5.78;;;2.13;;
29700;SDS011;57917;51.380;-0.176;2023-06-22T09:29:01;4.18;;;2.28;;
29700;SDS011;57917;51.380;-0.176;2023-06-22T09:34:50;10.25;;;2.10;;
29700;SDS011;57917;51.380;-0.176;2023-06-22T09:41:04;6.97;;;2.00;;
29700;SDS011;57917;51.380;-0.176;2023-06-22T09:46:51;4.35;;;2.92;;
29700;SDS011;57917;51.380;-0.176;2023-06-22T09:52:45;4.15;;;2.35;;
29700;SDS011;57917;51.380;-0.176;2023-06-22T09:58:40;5.00;;;2.25;;
29700;SDS011;57917;51.380;-0.176;2023-06-22T10:04:45;11.15;;;2.55;;
29700;SDS011;57917;51.380;-0.176;2023-06-22T10:17:04;2.72;;;1.92;;
29700;SDS011;57917;51.380;-0.176;2023-06-22T10:23:37;5.78;;;3.05;;
29700;SDS011;57917;51.380;-0.176;2023-06-22T10:29:35;5.60;;;2.70;;
29700;SDS011;57917;51.380;-0.176;2023-06-22T10:35:36;4.38;;;2.47;;
29700;SDS011;57917;51.380;-0.176;2023-06-22T10:41:38;4.22;;;2.30;;
29700;SDS011;57917;51.380;-0.176;2023-06-22T10:47:27;6.95;;;2.53;;
29700;SDS011;57917;51.380;-0.176;2023-06-22T10:53:18;7.82;;;2.47;;
29700;SDS011;57917;51.380;-0.176;2023-06-22T10:59:07;4.50;;;2.10;;
29700;SDS011;57917;51.380;-0.176;2023-06-22T11:04:56;5.35;;;2.35;;
29700;SDS011;57917;51.380;-0.176;2023-06-22T11:10:50;6.45;;;3.22;;
29700;SDS011;57917;51.380;-0.176;2023-06-22T11:22:43;4.47;;;2.22;;
29700;SDS011;57917;51.380;-0.176;2023-06-22T11:29:08;6.85;;;2.65;;
29700;SDS011;57917;51.380;-0.176;2023-06-22T11:35:28;8.48;;;2.83;;
29700;SDS011;57917;51.380;-0.176;2023-06-22T11:41:41;8.55;;;2.22;;
29700;SDS011;57917;51.380;-0.176;2023-06-22T11:47:42;3.75;;;2.10;;
29700;SDS011;57917;51.380;-0.176;2023-06-22T11:53:50;3.75;;;2.45;;
29700;SDS011;57917;51.380;-0.176;2023-06-22T12:00:11;10.95;;;2.50;;
29700;SDS011;57917;51.380;-0.176;2023-06-22T12:06:38;6.20;;;2.58;;
29700;SDS011;57917;51.380;-0.176;2023-06-22T12:19:05;2.78;;;1.95;;
29700;SDS011;57917;51.380;-0.176;2023-06-22T12:24:59;8.10;;;2.78;;
29700;SDS011;57917;51.380;-0.176;2023-06-22T12:31:04;8.40;;;2.78;;
29700;SDS011;57917;51.380;-0.176;2023-06-22T12:36:54;3.83;;;2.33;;
29700;SDS011;57917;51.380;-0.176;2023-06-22T12:43:00;4.93;;;2.10;;
29700;SDS011;57917;51.380;-0.176;2023-06-22T12:49:16;3.35;;;2.35;;
29700;SDS011;57917;51.380;-0.176;2023-06-22T12:55:15;4.43;;;2.30;;
29700;SDS011;57917;51.380;-0.176;2023-06-22T13:07:45;3.85;;;2.10;;
29700;SDS011;57917;51.380;-0.176;2023-06-22T13:13:54;2.72;;;1.83;;
29700;SDS011;57917;51.380;-0.176;2023-06-22T13:19:45;5.78;;;1.90;;
29700;SDS011;57917;51.380;-0.176;2023-06-22T13:25:33;5.65;;;1.90;;
29700;SDS011;57917;51.380;-0.176;2023-06-22T13:31:22;3.40;;;1.80;;
29700;SDS011;57917;51.380;-0.176;2023-06-22T13:37:33;6.60;;;2.00;;
29700;SDS011;57917;51.380;-0.176;2023-06-22T13:43:43;3.20;;;1.88;;
29700;SDS011;57917;51.380;-0.176;2023-06-22T13:49:38;2.60;;;1.63;;
29700;SDS011;57917;51.380;-0.176;2023-06-22T13:55:41;4.68;;;1.50;;
29700;SDS011;57917;51.380;-0.176;2023-06-22T14:01:28;8.13;;;1.70;;
29700;SDS011;57917;51.380;-0.176;2023-06-22T14:07:17;2.67;;;1.60;;
29700;SDS011;57917;51.380;-0.176;2023-06-22T14:13:07;2.80;;;1.88;;
29700;SDS011;57917;51.380;-0.176;2023-06-22T14:18:55;3.40;;;1.52;;
29700;SDS011;57917;51.380;-0.176;2023-06-22T14:25:04;2.05;;;1.30;;
29700;SDS011;57917;51.380;-0.176;2023-06-22T14:30:54;1.85;;;1.17;;
29700;SDS011;57917;51.380;-0.176;2023-06-22T14:36:41;2.45;;;1.48;;
29700;SDS011;57917;51.380;-0.176;2023-06-22T14:42:48;1.92;;;1.23;;
29700;SDS011;57917;51.380;-0.176;2023-06-22T14:49:07;4.88;;;1.60;;
29700;SDS011;57917;51.380;-0.176;2023-06-22T14:55:15;2.53;;;1.63;;
29700;SDS011;57917;51.380;-0.176;2023-06-22T15:01:56;3.40;;;1.58;;
29700;SDS011;57917;51.380;-0.176;2023-06-22T15:08:20;2.30;;;1.10;;
29700;SDS011;57917;51.380;-0.176;2023-06-22T15:14:08;4.78;;;1.30;;
29700;SDS011;57917;51.380;-0.176;2023-06-22T15:19:57;1.83;;;1.20;;
29700;SDS011;57917;51.380;-0.176;2023-06-22T15:26:06;1.40;;;1.20;;
29700;SDS011;57917;51.380;-0.176;2023-06-22T15:32:03;2.60;;;1.43;;
29700;SDS011;57917;51.380;-0.176;2023-06-22T15:37:50;3.25;;;1.48;;
29700;SDS011;57917;51.380;-0.176;2023-06-22T15:43:39;3.72;;;1.48;;
29700;SDS011;57917;51.380;-0.176;2023-06-22T15:49:32;2.00;;;1.30;;
29700;SDS011;57917;51.380;-0.176;2023-06-22T15:55:19;2.45;;;1.50;;
29700;SDS011;57917;51.380;-0.176;2023-06-22T16:01:11;2.27;;;1.33;;
29700;SDS011;57917;51.380;-0.176;2023-06-22T16:13:52;4.20;;;1.27;;
29700;SDS011;57917;51.380;-0.176;2023-06-22T16:20:14;3.45;;;1.67;;
29700;SDS011;57917;51.380;-0.176;2023-06-22T16:26:48;1.75;;;1.30;;
29700;SDS011;57917;51.380;-0.176;2023-06-22T16:32:38;3.45;;;1.48;;
29700;SDS011;57917;51.380;-0.176;2023-06-22T16:38:37;1.80;;;1.30;;
29700;SDS011;57917;51.380;-0.176;2023-06-22T16:44:31;7.40;;;2.03;;
29700;SDS011;57917;51.380;-0.176;2023-06-22T16:50:20;2.30;;;1.33;;
29700;SDS011;57917;51.380;-0.176;2023-06-22T16:56:07;1.77;;;1.42;;
29700;SDS011;57917;51.380;-0.176;2023-06-22T17:01:55;5.25;;;2.13;;
29700;SDS011;57917;51.380;-0.176;2023-06-22T17:07:52;3.88;;;1.40;;
29700;SDS011;57917;51.380;-0.176;2023-06-22T17:13:48;3.63;;;1.50;;
29700;SDS011;57917;51.380;-0.176;2023-06-22T17:19:37;4.78;;;1.73;;
29700;SDS011;57917;51.380;-0.176;2023-06-22T17:25:27;2.05;;;1.50;;
29700;SDS011;57917;51.380;-0.176;2023-06-22T17:31:17;3.90;;;1.70;;
29700;SDS011;57917;51.380;-0.176;2023-06-22T17:37:05;2.25;;;1.45;;
29700;SDS011;57917;51.380;-0.176;2023-06-22T17:43:04;1.77;;;1.20;;
29700;SDS011;57917;51.380;-0.176;2023-06-22T17:48:52;2.30;;;1.02;;
29700;SDS011;57917;51.380;-0.176;2023-06-22T17:54:39;1.75;;;1.05;;
29700;SDS011;57917;51.380;-0.176;2023-06-22T18:00:57;2.50;;;1.02;;
29700;SDS011;57917;51.380;-0.176;2023-06-22T18:06:47;1.63;;;1.10;;
29700;SDS011;57917;51.380;-0.176;2023-06-22T18:18:26;1.50;;;1.00;;
29700;SDS011;57917;51.380;-0.176;2023-06-22T18:24:19;1.15;;;0.90;;
29700;SDS011;57917;51.380;-0.176;2023-06-22T18:30:10;1.52;;;0.98;;
29700;SDS011;57917;51.380;-0.176;2023-06-22T18:36:05;5.20;;;1.00;;
29700;SDS011;57917;51.380;-0.176;2023-06-22T18:41:55;3.13;;;1.35;;
29700;SDS011;57917;51.380;-0.176;2023-06-22T18:47:54;2.75;;;1.20;;
29700;SDS011;57917;51.380;-0.176;2023-06-22T18:53:45;2.50;;;1.20;;
29700;SDS011;57917;51.380;-0.176;2023-06-22T19:05:44;2.85;;;1.10;;
29700;SDS011;57917;51.380;-0.176;2023-06-22T19:11:32;18.25;;;1.67;;
29700;SDS011;57917;51.380;-0.176;2023-06-22T19:17:20;2.83;;;1.00;;
29700;SDS011;57917;51.380;-0.176;2023-06-22T19:29:17;3.78;;;1.35;;
29700;SDS011;57917;51.380;-0.176;2023-06-22T19:35:05;2.70;;;1.27;;
29700;SDS011;57917;51.380;-0.176;2023-06-22T19:40:56;2.17;;;1.33;;
29700;SDS011;57917;51.380;-0.176;2023-06-22T19:46:48;1.42;;;0.77;;
29700;SDS011;57917;51.380;-0.176;2023-06-22T19:52:40;5.15;;;2.08;;
29700;SDS011;57917;51.380;-0.176;2023-06-22T19:58:33;2.03;;;1.27;;
29700;SDS011;57917;51.380;-0.176;2023-06-22T20:04:22;3.05;;;1.20;;
29700;SDS011;57917;51.380;-0.176;2023-06-22T20:10:13;4.07;;;1.10;;
29700;SDS011;57917;51.380;-0.176;2023-06-22T20:16:08;2.38;;;1.38;;
29700;SDS011;57917;51.380;-0.176;2023-06-22T20:21:55;4.70;;;1.17;;
29700;SDS011;57917;51.380;-0.176;2023-06-22T20:27:47;3.63;;;1.52;;
29700;SDS011;57917;51.380;-0.176;2023-06-22T20:33:45;3.28;;;1.40;;
29700;SDS011;57917;51.380;-0.176;2023-06-22T20:40:05;4.63;;;1.58;;
29700;SDS011;57917;51.380;-0.176;2023-06-22T20:45:54;3.33;;;1.58;;
29700;SDS011;57917;51.380;-0.176;2023-06-22T20:51:48;5.22;;;1.50;;
29700;SDS011;57917;51.380;-0.176;2023-06-22T20:57:44;2.22;;;1.35;;
29700;SDS011;57917;51.380;-0.176;2023-06-22T21:03:33;10.82;;;1.55;;
29700;SDS011;57917;51.380;-0.176;2023-06-22T21:09:24;5.95;;;1.98;;
29700;SDS011;57917;51.380;-0.176;2023-06-22T21:15:16;3.80;;;1.83;;
29700;SDS011;57917;51.380;-0.176;2023-06-22T21:21:05;2.55;;;1.50;;
29700;SDS011;57917;51.380;-0.176;2023-06-22T21:26:55;4.80;;;1.42;;
29700;SDS011;57917;51.380;-0.176;2023-06-22T21:32:45;3.97;;;2.03;;
29700;SDS011;57917;51.380;-0.176;2023-06-22T21:44:48;3.22;;;1.60;;
29700;SDS011;57917;51.380;-0.176;2023-06-22T21:50:40;4.53;;;1.70;;
29700;SDS011;57917;51.380;-0.176;2023-06-22T21:56:47;5.97;;;1.95;;
29700;SDS011;57917;51.380;-0.176;2023-06-22T22:02:34;6.03;;;1.90;;
29700;SDS011;57917;51.380;-0.176;2023-06-22T22:08:26;5.50;;;1.92;;
29700;SDS011;57917;51.380;-0.176;2023-06-22T22:14:16;5.35;;;2.03;;
29700;SDS011;57917;51.380;-0.176;2023-06-22T22:20:12;5.47;;;1.73;;
29700;SDS011;57917;51.380;-0.176;2023-06-22T22:26:00;2.83;;;1.85;;
29700;SDS011;57917;51.380;-0.176;2023-06-22T22:32:08;7.07;;;2.20;;
29700;SDS011;57917;51.380;-0.176;2023-06-22T22:37:57;3.90;;;1.83;;
29700;SDS011;57917;51.380;-0.176;2023-06-22T22:43:44;8.38;;;1.85;;
29700;SDS011;57917;51.380;-0.176;2023-06-22T22:49:34;4.38;;;1.73;;
29700;SDS011;57917;51.380;-0.176;2023-06-22T22:55:23;3.70;;;1.90;;
29700;SDS011;57917;51.380;-0.176;2023-06-22T23:07:50;2.90;;;1.65;;
29700;SDS011;57917;51.380;-0.176;2023-06-22T23:13:37;3.08;;;2.00;;
29700;SDS011;57917;51.380;-0.176;2023-06-22T23:19:24;3.95;;;2.20;;
29700;SDS011;57917;51.380;-0.176;2023-06-22T23:25:11;3.67;;;1.92;;
29700;SDS011;57917;51.380;-0.176;2023-06-22T23:30:58;5.75;;;1.60;;
29700;SDS011;57917;51.380;-0.176;2023-06-22T23:36:48;3.50;;;2.10;;
29700;SDS011;57917;51.380;-0.176;2023-06-22T23:42:38;4.32;;;2.05;;
29700;SDS011;57917;51.380;-0.176;2023-06-22T23:48:25;5.72;;;2.17;;
29700;SDS011;57917;51.380;-0.176;2023-06-22T23:54:17;4.90;;;2.28;;
